Yiyuan, China
Current Conditions -  °F | °C
As of 8:00 PM on Thursday 30 Oct 2014 (Local Time) from ZSJN Reporting Station
Haze Haze  
Wind Chill: 61°   Ceiling: Unl
Heat Index: 61°   Visibility: 1.5mi
Dew Point: 55°   Wind: 7mph
Humidity: 82%   Direction: 60°ENE
Pressure: 30.12"   Gusts: NA
Location:  36.18°N, 118.15°E
Report Text: ZSJN 301200Z 06003MPS 030V090 2400 BR NSC 16/13 Q1020 NOSIG
Loading
Personal Weather Stations






























Interactive Weather Map
Tropical Storm Tracking
New forecast layout! Learn more

10-Day Weather Forecast

Advertisements
Track Severe Weather on mobile